createdAt,value
2019-04-23T00:03:51.595Z,50.70
2019-04-23T00:06:24.859Z,50.93
2019-04-23T00:09:02.716Z,51.03
2019-04-23T00:11:30.788Z,51.21
2019-04-23T00:14:03.492Z,51.58
2019-04-23T00:18:49.794Z,51.91
2019-04-23T00:24:56.823Z,52.33
2019-04-23T00:27:24.005Z,52.46
2019-04-23T00:29:45.991Z,52.54
2019-04-23T00:32:15.682Z,52.81
2019-04-23T00:34:44.585Z,53.21
2019-04-23T00:37:23.160Z,53.25
2019-04-23T00:39:42.326Z,53.71
2019-04-23T00:42:16.855Z,53.88
2019-04-23T00:47:10.613Z,54.66
2019-04-23T00:49:40.107Z,54.25
2019-04-23T00:52:14.512Z,54.31
2019-04-23T00:54:41.826Z,54.40
2019-04-23T00:57:21.819Z,54.62
2019-04-23T00:59:46.798Z,54.88
2019-04-23T01:02:08.795Z,55.00
2019-04-23T01:04:41.526Z,55.13
2019-04-23T01:07:12.746Z,55.24
2019-04-23T01:09:48.926Z,55.18
2019-04-23T01:12:14.161Z,55.39
2019-04-23T01:14:53.357Z,55.38
2019-04-23T01:17:26.430Z,55.70
2019-04-23T01:20:01.621Z,55.87
2019-04-23T01:22:12.677Z,55.77
2019-04-23T01:24:50.806Z,55.96
2019-04-23T01:27:51.379Z,55.98
2019-04-23T01:30:17.849Z,56.30
2019-04-23T01:32:44.053Z,56.31
2019-04-23T01:40:27.399Z,56.73
2019-04-23T01:43:01.667Z,57.08
2019-04-23T01:45:20.233Z,57.13
2019-04-23T01:47:50.135Z,57.17
2019-04-23T01:50:20.172Z,57.19
2019-04-23T01:55:21.343Z,57.63
2019-04-23T01:57:56.053Z,57.80
2019-04-23T02:00:22.418Z,57.81
2019-04-23T02:05:23.920Z,57.87
2019-04-23T02:07:54.605Z,57.61
2019-04-23T02:10:29.546Z,57.81
2019-04-23T02:12:55.591Z,57.93
2019-04-23T02:15:23.105Z,58.13
2019-04-23T02:17:52.165Z,58.02
2019-04-23T02:20:23.838Z,58.28
2019-04-23T02:23:34.262Z,58.26
2019-04-23T02:28:32.940Z,58.02
2019-04-23T02:38:30.830Z,58.10
2019-04-23T02:41:12.921Z,58.27
2019-04-23T02:48:24.672Z,59.10
2019-04-23T02:56:04.365Z,59.55
2019-04-23T02:58:35.191Z,59.23
2019-04-23T03:01:14.811Z,59.12
2019-04-23T03:05:57.332Z,59.31
2019-04-23T03:11:18.363Z,59.57
2019-04-23T03:13:36.501Z,59.40
2019-04-23T03:18:45.844Z,59.10
2019-04-23T03:24:05.294Z,59.46
2019-04-23T03:26:51.613Z,59.45
2019-04-23T03:35:16.123Z,59.04
2019-04-23T03:36:13.799Z,58.92
2019-04-23T03:41:31.934Z,59.57
2019-04-23T03:43:46.866Z,59.55
2019-04-23T03:48:55.053Z,59.42
2019-04-23T03:51:40.389Z,59.55
2019-04-23T03:54:03.650Z,59.44
2019-04-23T03:56:34.486Z,59.54
2019-04-23T03:58:59.698Z,59.57
2019-04-23T04:01:29.903Z,59.46
2019-04-23T04:06:33.743Z,60.19
2019-04-23T04:09:12.884Z,59.90
2019-04-23T04:11:29.194Z,59.93
2019-04-23T04:16:28.385Z,60.28
2019-04-23T04:24:21.795Z,61.00
2019-04-23T04:26:46.369Z,61.03
2019-04-23T04:29:04.112Z,60.64
2019-04-23T04:34:10.791Z,60.95
2019-04-23T04:36:40.645Z,61.08
2019-04-23T04:41:34.368Z,60.92
2019-04-23T04:44:17.596Z,61.39
2019-04-23T04:49:01.639Z,61.54
2019-04-23T04:51:37.905Z,60.99
2019-04-23T04:54:17.721Z,60.79
2019-04-23T04:56:43.106Z,60.74
2019-04-23T05:01:52.288Z,60.62
2019-04-23T05:04:00.340Z,60.49
2019-04-23T05:11:52.435Z,60.41
2019-04-23T05:14:07.601Z,60.03
2019-04-23T05:21:49.680Z,59.77
2019-04-23T05:26:35.135Z,58.76
2019-04-23T05:29:06.312Z,58.48
2019-04-23T05:31:51.520Z,58.47
2019-04-23T05:34:08.021Z,57.73
2019-04-23T05:39:15.821Z,56.47
2019-04-23T05:41:38.449Z,55.75
2019-04-23T05:44:10.325Z,56.00
2019-04-23T05:46:43.309Z,54.51
2019-04-23T05:51:48.953Z,53.54
2019-04-23T05:56:53.481Z,53.22
2019-04-23T05:59:14.739Z,52.94
2019-04-23T06:07:08.768Z,51.69
2019-04-23T06:09:15.757Z,51.71
2019-04-23T06:14:19.150Z,51.38
2019-04-23T06:17:03.856Z,51.09
2019-04-23T06:19:18.252Z,51.09
2019-04-23T06:21:50.941Z,51.01
2019-04-23T06:26:49.344Z,51.27
2019-04-23T06:29:20.990Z,50.35
2019-04-23T06:36:45.527Z,49.09
2019-04-23T06:39:23.274Z,49.47
2019-04-23T06:41:53.070Z,48.50
2019-04-23T06:44:24.120Z,49.42
2019-04-23T06:46:56.783Z,48.24
2019-04-23T06:49:26.530Z,48.44
2019-04-23T06:52:15.018Z,48.29
2019-04-23T06:54:37.877Z,48.13
2019-04-23T06:57:10.762Z,47.01
2019-04-23T07:09:27.701Z,45.97
2019-04-23T07:11:59.077Z,46.13
2019-04-23T07:14:34.163Z,45.74
2019-04-23T07:16:58.492Z,46.03
2019-04-23T07:19:39.368Z,45.15
2019-04-23T07:22:08.147Z,45.35
2019-04-23T07:24:28.697Z,44.03
2019-04-23T07:26:55.449Z,45.12
2019-04-23T07:29:55.583Z,42.81
2019-04-23T07:31:59.331Z,43.62
2019-04-23T07:34:31.789Z,43.39
2019-04-23T07:36:58.841Z,43.64
2019-04-23T07:39:47.278Z,43.04
2019-04-23T07:45:26.182Z,42.81
2019-04-23T08:05:39.724Z,42.28
2019-04-23T08:08:13.405Z,40.25
2019-04-23T08:11:23.411Z,39.84
2019-04-23T08:13:39.840Z,39.74
2019-04-23T08:16:07.043Z,39.41
2019-04-23T08:18:45.617Z,39.77
2019-04-23T08:21:12.333Z,39.24
2019-04-23T08:26:55.101Z,39.71
2019-04-23T08:29:19.896Z,38.64
2019-04-23T08:32:05.379Z,38.64
2019-04-23T08:39:33.934Z,36.63
2019-04-23T08:45:13.305Z,37.60
2019-04-23T08:48:04.248Z,37.25
2019-04-23T08:50:27.708Z,36.82
2019-04-23T08:52:41.675Z,36.87
2019-04-23T08:57:41.287Z,37.87
2019-04-23T09:00:07.852Z,37.02
2019-04-23T09:02:40.276Z,36.62
2019-04-23T09:07:45.097Z,37.16
2019-04-23T09:12:43.858Z,36.00
2019-04-23T09:15:16.795Z,36.04
2019-04-23T09:17:53.068Z,35.26
2019-04-23T09:25:26.438Z,36.08
2019-04-23T09:27:45.365Z,35.31
2019-04-23T09:30:15.707Z,35.35
2019-04-23T09:33:06.267Z,35.21
2019-04-23T09:35:32.346Z,34.62
2019-04-23T09:38:23.800Z,34.99
2019-04-23T09:41:20.123Z,35.42
2019-04-23T09:43:58.934Z,35.36
2019-04-23T09:46:44.470Z,35.31
2019-04-23T09:49:20.386Z,35.06
2019-04-23T09:51:48.682Z,34.99
2019-04-23T09:54:16.154Z,34.67
2019-04-23T09:59:25.611Z,34.53
2019-04-23T10:01:39.351Z,34.97
2019-04-23T10:04:00.343Z,34.28
2019-04-23T10:06:25.206Z,34.77
2019-04-23T10:08:54.469Z,34.50
2019-04-23T10:11:22.026Z,34.67
2019-04-23T10:13:52.619Z,33.54
2019-04-23T10:16:23.364Z,34.15
2019-04-23T10:18:51.123Z,34.42
2019-04-23T10:21:19.488Z,36.00
2019-04-23T10:23:49.481Z,34.50
2019-04-23T10:26:17.907Z,34.67
2019-04-23T10:28:56.140Z,33.96
2019-04-23T10:31:25.162Z,34.27
2019-04-23T10:33:53.456Z,33.95
2019-04-23T10:36:25.459Z,34.16
2019-04-23T10:39:01.975Z,33.50
2019-04-23T10:41:22.561Z,33.92
2019-04-23T10:43:56.795Z,34.32
2019-04-23T10:47:27.102Z,34.94
2019-04-23T10:52:37.448Z,33.25
2019-04-23T10:54:51.168Z,33.09
2019-04-23T10:57:18.826Z,33.07
2019-04-23T10:59:47.338Z,33.27
2019-04-23T11:12:44.432Z,33.24
2019-04-23T11:20:25.380Z,32.27
2019-04-23T11:25:28.060Z,31.72
2019-04-23T11:27:52.419Z,32.52
2019-04-23T11:30:31.454Z,32.24
2019-04-23T11:32:53.928Z,32.34
2019-04-23T11:35:31.296Z,31.44
2019-04-23T11:40:23.299Z,32.00
2019-04-23T11:43:01.905Z,32.13
2019-04-23T11:45:43.150Z,31.77
2019-04-23T11:53:01.160Z,31.06
2019-04-23T11:55:32.775Z,31.83
2019-04-23T11:58:00.716Z,32.10
2019-04-23T12:00:34.878Z,32.20
2019-04-23T12:03:01.729Z,31.44
2019-04-23T12:06:07.855Z,32.01
2019-04-23T12:08:50.929Z,31.42
2019-04-23T12:14:24.048Z,31.34
2019-04-23T12:17:05.532Z,30.77
2019-04-23T12:19:44.056Z,31.04
2019-04-23T12:24:42.143Z,31.16
2019-04-23T12:29:27.806Z,31.20
2019-04-23T12:32:28.486Z,31.12
2019-04-23T12:34:53.025Z,31.06
2019-04-23T12:37:26.470Z,31.42
2019-04-23T12:39:49.476Z,31.25
2019-04-23T12:42:37.225Z,31.08
2019-04-23T12:44:51.564Z,31.58
2019-04-23T12:47:25.535Z,31.45
2019-04-23T12:50:13.280Z,31.32
2019-04-23T12:52:27.780Z,31.57
2019-04-23T12:54:59.059Z,32.13
2019-04-23T12:57:21.352Z,31.10
2019-04-23T13:02:27.343Z,30.99
2019-04-23T13:04:48.629Z,31.29
2019-04-23T13:07:26.295Z,31.07
2019-04-23T13:12:34.773Z,31.29
2019-04-23T13:14:57.327Z,30.99
2019-04-23T13:17:39.685Z,31.27
2019-04-23T13:20:04.092Z,31.65
2019-04-23T13:22:31.033Z,30.73
2019-04-23T13:25:09.906Z,31.31
2019-04-23T13:27:49.614Z,30.99
2019-04-23T13:30:17.203Z,30.95
2019-04-23T13:32:46.478Z,31.00
2019-04-23T13:35:31.926Z,31.11
2019-04-23T13:37:58.975Z,31.12
2019-04-23T13:40:17.708Z,31.07
2019-04-23T13:42:45.096Z,30.92
2019-04-23T13:45:33.304Z,31.08
2019-04-23T13:50:20.263Z,31.04
2019-04-23T13:55:10.350Z,32.07
2019-04-23T13:58:04.684Z,31.97
2019-04-23T14:00:22.689Z,31.08
2019-04-23T14:02:43.904Z,31.28
2019-04-23T14:05:27.716Z,30.92
2019-04-23T14:10:40.091Z,31.24
2019-04-23T14:13:30.210Z,31.49
2019-04-23T14:15:42.555Z,31.35
2019-04-23T14:18:19.659Z,31.48
2019-04-23T14:25:28.053Z,31.88
2019-04-23T14:28:18.721Z,31.63
2019-04-23T14:30:38.418Z,31.65
2019-04-23T14:33:11.941Z,31.81
2019-04-23T14:38:22.081Z,31.78
2019-04-23T14:43:14.987Z,32.29
2019-04-23T14:46:02.602Z,32.01
2019-04-23T14:48:18.965Z,31.97
2019-04-23T14:50:53.597Z,32.42
2019-04-23T14:53:21.429Z,32.18
2019-04-23T14:55:56.995Z,32.60
2019-04-23T15:01:08.405Z,32.25
2019-04-23T15:03:28.794Z,32.75
2019-04-23T15:06:05.142Z,32.65
2019-04-23T15:08:25.200Z,32.43
2019-04-23T15:11:06.683Z,32.36
2019-04-23T15:13:23.156Z,32.35
2019-04-23T15:16:04.266Z,33.05
2019-04-23T15:18:44.486Z,32.97
2019-04-23T15:21:34.600Z,32.60
2019-04-23T15:23:51.409Z,33.26
2019-04-23T15:27:01.736Z,32.97
2019-04-23T15:28:15.032Z,32.98
2019-04-23T15:33:45.020Z,34.26
2019-04-23T15:38:56.364Z,34.28
2019-04-23T15:41:13.866Z,34.96
2019-04-23T15:43:41.161Z,34.38
2019-04-23T15:46:21.508Z,34.46
2019-04-23T15:48:49.698Z,33.65
2019-04-23T15:51:21.916Z,33.48
2019-04-23T15:53:41.040Z,33.93
2019-04-23T15:56:18.689Z,34.33
2019-04-23T15:58:56.143Z,33.83
2019-04-23T16:03:21.697Z,34.08
2019-04-23T16:05:51.138Z,34.92
2019-04-23T16:08:58.935Z,34.59
2019-04-23T16:11:34.442Z,35.62
2019-04-23T16:14:11.309Z,36.04
2019-04-23T16:16:29.719Z,35.94
2019-04-23T16:19:23.085Z,35.57
2019-04-23T16:24:19.480Z,35.24
2019-04-23T16:31:45.359Z,35.12
2019-04-23T16:37:07.744Z,35.49
2019-04-23T16:39:39.040Z,36.07
2019-04-23T16:42:08.783Z,36.10
2019-04-23T16:44:48.325Z,35.97
2019-04-23T16:47:10.606Z,37.25
2019-04-23T16:49:46.115Z,36.89
2019-04-23T16:52:09.618Z,36.93
2019-04-23T16:54:53.866Z,36.86
2019-04-23T16:57:21.505Z,37.41
2019-04-23T16:59:48.673Z,37.76
2019-04-23T17:02:18.205Z,37.65
2019-04-23T17:07:07.107Z,38.54
2019-04-23T17:12:16.169Z,38.78
2019-04-23T17:14:44.328Z,38.47
2019-04-23T17:17:05.226Z,39.31
2019-04-23T17:19:47.942Z,38.48
2019-04-23T17:22:13.122Z,38.83
2019-04-23T17:24:43.293Z,38.44
2019-04-23T17:27:18.114Z,38.86
2019-04-23T17:29:41.918Z,38.58
2019-04-23T17:32:34.631Z,39.09
2019-04-23T17:35:04.715Z,39.55
2019-04-23T17:40:17.712Z,40.15
2019-04-23T17:42:39.406Z,39.96
2019-04-23T17:45:26.048Z,40.18
2019-04-23T17:47:57.635Z,40.32
2019-04-23T17:50:28.723Z,41.32
2019-04-23T17:55:35.839Z,41.00
2019-04-23T17:58:12.704Z,40.98
2019-04-23T18:00:33.564Z,41.28
2019-04-23T18:05:31.513Z,41.53
2019-04-23T18:15:38.103Z,42.59
2019-04-23T18:18:11.710Z,42.57
2019-04-23T18:21:03.581Z,42.47
2019-04-23T18:23:22.470Z,42.03
2019-04-23T18:26:08.737Z,42.19
2019-04-23T18:28:30.124Z,42.04
2019-04-23T18:31:23.945Z,42.00
2019-04-23T18:36:23.519Z,42.71
2019-04-23T18:38:59.562Z,42.52
2019-04-23T18:41:26.159Z,42.84
2019-04-23T18:44:05.801Z,43.34
2019-04-23T18:48:53.379Z,43.40
2019-04-23T18:51:33.605Z,43.76
2019-04-23T18:53:56.336Z,44.08
2019-04-23T18:56:33.898Z,44.11
2019-04-23T18:59:26.176Z,44.44
2019-04-23T19:02:02.949Z,44.56
2019-04-23T19:04:33.114Z,44.90
2019-04-23T19:06:52.490Z,45.22
2019-04-23T19:13:00.191Z,45.70
2019-04-23T19:17:53.308Z,45.82
2019-04-23T19:20:46.411Z,45.73
2019-04-23T19:22:58.318Z,46.10
2019-04-23T19:25:27.867Z,46.52
2019-04-23T19:28:07.545Z,46.64
2019-04-23T19:30:43.138Z,46.72
2019-04-23T19:33:14.218Z,47.10
2019-04-23T19:36:01.430Z,47.46
2019-04-23T19:38:13.643Z,47.63
2019-04-23T19:40:49.305Z,47.78
2019-04-23T19:43:12.064Z,48.07
2019-04-23T19:45:49.446Z,48.11
2019-04-23T19:48:21.594Z,48.77
2019-04-23T19:50:48.997Z,49.56
2019-04-23T19:53:26.198Z,49.62
2019-04-23T19:55:58.834Z,50.02
2019-04-23T20:01:03.677Z,50.29
2019-04-23T20:03:37.865Z,50.44
2019-04-23T20:05:46.594Z,50.99
2019-04-23T20:08:22.500Z,51.36
2019-04-23T20:11:06.298Z,51.26
2019-04-23T20:13:21.847Z,51.61
2019-04-23T20:15:55.140Z,51.96
2019-04-23T20:18:22.292Z,52.04
2019-04-23T20:20:49.642Z,51.71
2019-04-23T20:23:25.894Z,51.90
2019-04-23T20:32:15.344Z,52.18
2019-04-23T20:36:40.769Z,52.76
2019-04-23T20:39:13.505Z,52.63
2019-04-23T20:42:07.906Z,53.16
2019-04-23T20:44:35.280Z,53.32
2019-04-23T20:47:04.819Z,53.70
2019-04-23T20:49:31.831Z,53.82
2019-04-23T20:52:00.223Z,53.91
2019-04-23T20:54:39.643Z,54.53
2019-04-23T20:57:23.219Z,53.94
2019-04-23T20:59:56.627Z,54.26
2019-04-23T21:02:54.757Z,54.68
2019-04-23T21:07:52.565Z,54.86
2019-04-23T21:10:18.185Z,54.86
2019-04-23T21:12:57.622Z,55.15
2019-04-23T21:17:54.185Z,55.75
2019-04-23T21:20:19.697Z,55.65
2019-04-23T21:22:41.160Z,55.89
2019-04-23T21:25:25.471Z,56.07
2019-04-23T21:27:57.533Z,56.20
2019-04-23T21:30:39.703Z,56.37
2019-04-23T21:33:04.875Z,56.64
2019-04-23T21:36:05.445Z,56.98
2019-04-23T21:38:27.728Z,57.21
2019-04-23T21:41:21.465Z,57.23
2019-04-23T21:44:05.618Z,57.71
2019-04-23T21:49:01.793Z,58.05
2019-04-23T21:53:46.082Z,58.12
2019-04-23T21:56:15.579Z,58.71
2019-04-23T21:58:53.610Z,58.54
2019-04-23T22:01:29.849Z,58.57
2019-04-23T22:08:59.451Z,59.29
2019-04-23T22:16:53.941Z,59.36
2019-04-23T22:19:15.431Z,59.68
2019-04-23T22:21:47.214Z,59.89
2019-04-23T22:26:38.142Z,60.16
2019-04-23T22:31:54.977Z,60.79
2019-04-23T22:36:51.819Z,60.87
2019-04-23T22:41:54.144Z,61.00
2019-04-23T22:44:30.556Z,61.09
2019-04-23T22:46:52.133Z,60.79
2019-04-23T22:49:30.831Z,61.17
2019-04-23T22:51:55.147Z,61.12
2019-04-23T22:54:13.906Z,60.67
2019-04-23T22:59:28.041Z,61.13
2019-04-23T23:01:59.056Z,61.19
2019-04-23T23:04:28.629Z,61.94
2019-04-23T23:07:01.382Z,61.92
2019-04-23T23:12:04.087Z,62.16
2019-04-23T23:14:27.542Z,62.38
2019-04-23T23:16:58.867Z,62.50
2019-04-23T23:19:54.376Z,62.54
2019-04-23T23:22:03.342Z,62.64
2019-04-23T23:24:33.721Z,62.93
2019-04-23T23:27:02.418Z,62.78
2019-04-23T23:29:32.383Z,63.02
2019-04-23T23:32:07.439Z,63.07
2019-04-23T23:34:36.216Z,63.44
2019-04-23T23:37:07.488Z,63.61
2019-04-23T23:39:47.881Z,63.87
2019-04-23T23:42:05.547Z,63.09
2019-04-23T23:44:43.458Z,63.41
2019-04-23T23:47:12.593Z,63.37
2019-04-23T23:49:34.282Z,63.08
2019-04-23T23:54:30.878Z,63.32
2019-04-23T23:57:12.212Z,63.48
